createdAt,value
2022-09-24T00:00:36.791Z,39.20
2022-09-24T00:01:36.857Z,42.40
2022-09-24T00:02:36.843Z,43.20
2022-09-24T00:03:36.758Z,40.90
2022-09-24T00:04:36.745Z,42.90
2022-09-24T00:05:36.730Z,41.60
2022-09-24T00:06:36.721Z,52.10
2022-09-24T00:07:36.709Z,42.40
2022-09-24T00:08:36.699Z,45.20
2022-09-24T00:09:36.684Z,44.90
2022-09-24T00:10:36.678Z,45.20
2022-09-24T00:11:36.666Z,42.20
2022-09-24T00:12:36.656Z,43.60
2022-09-24T00:13:36.865Z,43.10
2022-09-24T00:14:36.638Z,46.00
2022-09-24T00:15:36.636Z,47.50
2022-09-24T00:16:36.755Z,48.50
2022-09-24T00:17:36.688Z,47.60
2022-09-24T00:18:36.822Z,44.50
2022-09-24T00:19:36.708Z,46.70
2022-09-24T00:20:36.710Z,53.80
2022-09-24T00:21:36.588Z,45.20
2022-09-24T00:22:36.545Z,46.90
2022-09-24T00:23:36.533Z,53.50
2022-09-24T00:24:36.581Z,57.00
2022-09-24T00:25:36.510Z,49.30
2022-09-24T00:26:36.499Z,44.50
2022-09-24T00:27:36.486Z,47.20
2022-09-24T00:28:36.477Z,46.10
2022-09-24T00:29:36.486Z,48.70
2022-09-24T00:30:36.455Z,48.40
2022-09-24T00:31:36.538Z,48.00
2022-09-24T00:32:36.436Z,46.60
2022-09-24T00:33:36.421Z,49.10
2022-09-24T00:34:36.410Z,47.40
2022-09-24T00:35:36.404Z,46.80
2022-09-24T00:36:36.388Z,51.30
2022-09-24T00:37:36.374Z,48.20
2022-09-24T00:38:36.369Z,52.50
2022-09-24T00:39:36.354Z,54.80
2022-09-24T00:40:36.381Z,50.50
2022-09-24T00:41:36.337Z,57.30
2022-09-24T00:42:36.322Z,49.10
2022-09-24T00:43:36.309Z,50.20
2022-09-24T00:44:36.302Z,50.90
2022-09-24T00:45:36.321Z,49.90
2022-09-24T00:46:36.364Z,57.20
2022-09-24T00:47:36.274Z,50.40
2022-09-24T00:48:36.257Z,49.60
2022-09-24T00:49:36.246Z,51.10
2022-09-24T00:50:36.239Z,50.80
2022-09-24T00:51:36.223Z,49.10
2022-09-24T00:52:36.216Z,50.90
2022-09-24T00:53:36.201Z,53.60
2022-09-24T00:54:36.203Z,48.80
2022-09-24T00:55:36.190Z,48.40
2022-09-24T00:56:36.321Z,50.90
2022-09-24T00:57:36.159Z,49.60
2022-09-24T00:58:36.151Z,49.00
2022-09-24T00:59:36.135Z,52.10
2022-09-24T01:00:36.212Z,59.70
2022-09-24T01:01:36.216Z,51.30
2022-09-24T01:02:36.130Z,50.50
2022-09-24T01:03:36.089Z,51.60
2022-09-24T01:04:36.083Z,51.60
2022-09-24T01:05:36.066Z,50.20
2022-09-24T01:06:36.058Z,50.30
2022-09-24T01:07:36.044Z,50.50
2022-09-24T01:08:36.042Z,51.30
2022-09-24T01:09:36.026Z,53.20
2022-09-24T01:10:36.014Z,51.80
2022-09-24T01:11:36.001Z,50.10
2022-09-24T01:12:35.990Z,51.90
2022-09-24T01:13:38.929Z,51.80
2022-09-24T01:14:35.971Z,54.20
2022-09-24T01:15:35.957Z,54.20
2022-09-24T01:16:36.030Z,51.40
2022-09-24T01:17:35.961Z,51.10
2022-09-24T01:18:35.925Z,52.10
2022-09-24T01:19:35.913Z,53.70
2022-09-24T01:20:35.908Z,51.40
2022-09-24T01:21:35.891Z,48.60
2022-09-24T01:22:35.889Z,51.80
2022-09-24T01:23:35.869Z,51.90
2022-09-24T01:24:35.861Z,50.70
2022-09-24T01:25:35.848Z,55.50
2022-09-24T01:26:35.838Z,55.90
2022-09-24T01:27:35.824Z,51.60
2022-09-24T01:28:35.823Z,51.40
2022-09-24T01:29:35.803Z,52.70
2022-09-24T01:30:35.794Z,51.80
2022-09-24T01:31:35.857Z,55.10
2022-09-24T01:32:35.773Z,54.30
2022-09-24T01:33:35.781Z,55.30
2022-09-24T01:34:35.751Z,61.20
2022-09-24T01:35:35.737Z,51.10
2022-09-24T01:36:35.729Z,50.50
2022-09-24T01:37:35.715Z,52.90
2022-09-24T01:38:35.704Z,53.10
2022-09-24T01:39:35.692Z,56.30
2022-09-24T01:40:35.730Z,53.80
2022-09-24T01:41:35.675Z,52.70
2022-09-24T01:42:35.663Z,51.00
2022-09-24T01:43:35.648Z,52.00
2022-09-24T01:44:35.642Z,56.00
2022-09-24T01:45:35.626Z,54.20
2022-09-24T01:46:35.696Z,52.30
2022-09-24T01:47:35.606Z,52.80
2022-09-24T01:48:35.600Z,61.00
2022-09-24T01:49:35.604Z,51.60
2022-09-24T01:50:35.572Z,58.70
2022-09-24T01:51:35.566Z,56.20
2022-09-24T01:52:35.556Z,54.90
2022-09-24T01:53:35.549Z,52.10
2022-09-24T01:54:35.528Z,58.50
2022-09-24T01:55:35.516Z,52.50
2022-09-24T01:56:35.509Z,55.80
2022-09-24T01:57:35.492Z,53.50
2022-09-24T01:58:35.486Z,56.50
2022-09-24T01:59:35.471Z,53.00
2022-09-24T02:00:35.519Z,52.20
2022-09-24T02:01:35.510Z,68.90
2022-09-24T02:02:35.439Z,53.30
2022-09-24T02:03:35.428Z,64.10
2022-09-24T02:04:35.420Z,59.50
2022-09-24T02:05:35.440Z,53.00
2022-09-24T02:06:35.397Z,53.10
2022-09-24T02:07:35.383Z,49.40
2022-09-24T02:08:35.373Z,46.30
2022-09-24T02:09:35.359Z,47.90
2022-09-24T02:10:35.354Z,56.10
2022-09-24T02:11:35.338Z,51.50
2022-09-24T02:12:35.331Z,51.50
2022-09-24T02:13:35.316Z,45.70
2022-09-24T02:14:35.308Z,57.90
2022-09-24T02:15:35.294Z,44.30
2022-09-24T02:16:35.306Z,48.30
2022-09-24T02:17:35.274Z,47.20
2022-09-24T02:18:35.262Z,46.40
2022-09-24T02:19:35.250Z,50.20
2022-09-24T02:20:35.239Z,58.60
2022-09-24T02:21:35.255Z,48.10
2022-09-24T02:22:35.215Z,45.80
2022-09-24T02:23:35.207Z,50.20
2022-09-24T02:24:35.195Z,46.90
2022-09-24T02:25:35.188Z,44.70
2022-09-24T02:26:35.173Z,46.00
2022-09-24T02:27:35.165Z,46.10
2022-09-24T02:28:35.150Z,46.80
2022-09-24T02:29:35.141Z,45.90
2022-09-24T02:30:35.130Z,46.30
2022-09-24T02:31:35.192Z,46.10
2022-09-24T02:32:35.108Z,47.20
2022-09-24T02:33:35.097Z,48.70
2022-09-24T02:34:35.086Z,54.40
2022-09-24T02:35:35.081Z,45.20
2022-09-24T02:36:35.066Z,47.10
2022-09-24T02:37:35.079Z,43.30
2022-09-24T02:38:35.048Z,43.70
2022-09-24T02:39:35.037Z,47.40
2022-09-24T02:40:35.091Z,46.70
2022-09-24T02:41:35.011Z,49.40
2022-09-24T02:42:34.999Z,45.50
2022-09-24T02:43:34.998Z,45.80
2022-09-24T02:44:34.974Z,47.70
2022-09-24T02:45:34.965Z,45.40
2022-09-24T02:46:35.019Z,44.20
2022-09-24T02:47:34.944Z,43.20
2022-09-24T02:48:34.930Z,46.70
2022-09-24T02:49:34.930Z,53.50
2022-09-24T02:50:34.912Z,46.90
2022-09-24T02:51:34.903Z,47.50
2022-09-24T02:52:34.889Z,42.30
2022-09-24T02:53:34.907Z,43.10
2022-09-24T02:54:34.864Z,41.40
2022-09-24T02:55:34.855Z,48.70
2022-09-24T02:56:34.842Z,50.10
2022-09-24T02:57:34.836Z,49.50
2022-09-24T02:58:34.820Z,41.20
2022-09-24T02:59:34.819Z,42.90
2022-09-24T03:00:34.801Z,47.10
2022-09-24T03:01:35.284Z,39.20
2022-09-24T03:02:35.220Z,39.00
2022-09-24T03:03:34.768Z,40.30
2022-09-24T03:04:34.755Z,41.50
2022-09-24T03:05:34.808Z,40.70
2022-09-24T03:06:34.745Z,40.00
2022-09-24T03:07:34.724Z,42.90
2022-09-24T03:08:34.710Z,39.90
2022-09-24T03:09:34.810Z,39.20
2022-09-24T03:15:19.594Z,36.60
2022-09-24T03:16:19.711Z,37.30
2022-09-24T03:17:19.577Z,42.60
2022-09-24T03:18:19.563Z,39.10
2022-09-24T03:19:19.551Z,39.90
2022-09-24T03:20:19.539Z,42.80
2022-09-24T03:21:19.531Z,44.80
2022-09-24T03:22:19.518Z,38.80
2022-09-24T03:23:19.506Z,38.20
2022-09-24T03:24:19.495Z,39.80
2022-09-24T03:25:19.511Z,40.10
2022-09-24T03:26:19.474Z,41.30
2022-09-24T03:27:19.464Z,36.00
2022-09-24T03:28:19.451Z,39.80
2022-09-24T03:29:19.440Z,40.40
2022-09-24T03:30:19.433Z,40.70
2022-09-24T03:31:19.484Z,40.30
2022-09-24T03:32:19.406Z,38.50
2022-09-24T03:33:19.398Z,38.80
2022-09-24T03:34:19.386Z,40.50
2022-09-24T03:35:19.377Z,41.10
2022-09-24T03:36:19.362Z,40.00
2022-09-24T03:37:19.356Z,38.00
2022-09-24T03:38:19.341Z,38.20
2022-09-24T03:39:19.330Z,43.60
2022-09-24T03:40:19.348Z,36.20
2022-09-24T03:41:19.332Z,37.00
2022-09-24T03:42:19.296Z,36.80
2022-09-24T03:43:19.287Z,38.30
2022-09-24T03:44:19.273Z,39.00
2022-09-24T03:45:19.264Z,34.60
2022-09-24T03:46:19.486Z,37.30
2022-09-24T03:47:19.242Z,34.30
2022-09-24T03:48:19.228Z,34.90
2022-09-24T03:49:19.220Z,33.90
2022-09-24T03:50:19.207Z,35.90
2022-09-24T03:51:19.257Z,37.20
2022-09-24T03:52:19.185Z,36.10
2022-09-24T03:53:19.176Z,34.70
2022-09-24T03:54:19.161Z,36.50
2022-09-24T03:55:19.154Z,34.40
2022-09-24T03:56:19.142Z,40.70
2022-09-24T03:57:19.158Z,39.00
2022-09-24T03:58:19.119Z,35.70
2022-09-24T03:59:19.110Z,37.10
2022-09-24T04:00:19.099Z,40.10
2022-09-24T04:01:19.150Z,36.00
2022-09-24T04:02:19.076Z,36.70
2022-09-24T04:03:19.152Z,38.40
2022-09-24T04:04:19.054Z,37.40
2022-09-24T04:05:19.046Z,35.20
2022-09-24T04:06:24.753Z,39.50
2022-09-24T04:07:19.020Z,41.20
2022-09-24T04:08:19.015Z,35.40
2022-09-24T04:09:18.999Z,34.80
2022-09-24T04:10:18.986Z,34.30
2022-09-24T04:11:18.976Z,36.10
2022-09-24T04:12:18.964Z,38.10
2022-09-24T04:13:18.978Z,37.50
2022-09-24T04:14:18.942Z,35.10
2022-09-24T04:15:18.934Z,36.30
2022-09-24T04:16:19.004Z,41.90
2022-09-24T04:17:18.910Z,39.90
2022-09-24T04:18:18.900Z,41.60
2022-09-24T04:19:18.894Z,45.10
2022-09-24T04:20:18.876Z,36.20
2022-09-24T04:21:18.870Z,38.40
2022-09-24T04:22:18.854Z,41.10
2022-09-24T04:23:18.850Z,37.60
2022-09-24T04:24:18.832Z,42.20
2022-09-24T04:25:18.831Z,38.10
2022-09-24T04:26:18.812Z,42.70
2022-09-24T04:27:18.801Z,37.70
2022-09-24T04:28:18.789Z,38.50
2022-09-24T04:29:18.809Z,38.60
2022-09-24T04:30:18.766Z,44.20
2022-09-24T04:31:18.792Z,39.30
2022-09-24T04:32:18.745Z,40.20
2022-09-24T04:33:18.734Z,42.90
2022-09-24T04:34:18.723Z,42.40
2022-09-24T04:35:18.713Z,41.80
2022-09-24T04:36:18.700Z,40.40
2022-09-24T04:37:18.690Z,40.70
2022-09-24T04:38:18.677Z,38.70
2022-09-24T04:39:18.669Z,40.40
2022-09-24T04:40:18.682Z,44.00
2022-09-24T04:41:18.654Z,39.50
2022-09-24T04:42:18.636Z,40.10
2022-09-24T04:43:18.624Z,41.80
2022-09-24T04:44:18.612Z,41.70
2022-09-24T04:45:18.626Z,40.10
2022-09-24T04:46:18.703Z,44.60
2022-09-24T04:47:18.593Z,45.60
2022-09-24T04:48:18.571Z,41.50
2022-09-24T04:49:18.559Z,45.00
2022-09-24T04:50:18.545Z,45.70
2022-09-24T04:51:18.536Z,48.70
2022-09-24T04:52:18.523Z,44.50
2022-09-24T04:53:18.515Z,45.50
2022-09-24T04:54:18.502Z,49.90
2022-09-24T04:55:18.493Z,47.70
2022-09-24T04:56:18.479Z,45.00
2022-09-24T04:57:18.475Z,42.60
2022-09-24T04:58:18.456Z,46.50
2022-09-24T04:59:18.447Z,44.60
2022-09-24T05:00:18.546Z,51.40
2022-09-24T05:01:18.530Z,45.30
2022-09-24T05:02:18.523Z,49.60
2022-09-24T05:03:18.432Z,45.50
2022-09-24T05:04:18.394Z,52.50
2022-09-24T05:05:18.385Z,48.10
2022-09-24T05:06:18.370Z,48.90
2022-09-24T05:07:18.359Z,45.60
2022-09-24T05:08:18.346Z,46.10
2022-09-24T05:09:18.624Z,57.10
2022-09-24T05:10:18.327Z,46.40
2022-09-24T05:11:18.324Z,51.50
2022-09-24T05:12:18.304Z,48.40
2022-09-24T05:13:18.291Z,47.80
2022-09-24T05:14:18.280Z,49.10
2022-09-24T05:15:18.270Z,51.50
2022-09-24T05:16:18.385Z,51.30
2022-09-24T05:17:18.274Z,51.20
2022-09-24T05:18:18.239Z,50.50
2022-09-24T05:19:18.227Z,51.90
2022-09-24T05:20:18.216Z,55.70
2022-09-24T05:21:18.208Z,51.40
2022-09-24T05:22:18.195Z,59.60
2022-09-24T05:23:18.183Z,52.20
2022-09-24T05:24:18.176Z,51.20
2022-09-24T05:25:18.163Z,63.70
2022-09-24T05:26:18.151Z,50.50
2022-09-24T05:27:18.139Z,58.40
2022-09-24T05:28:18.130Z,60.70
2022-09-24T05:29:18.123Z,56.10
2022-09-24T05:30:18.123Z,52.90
2022-09-24T05:31:18.145Z,54.70
2022-09-24T05:32:18.084Z,51.60
2022-09-24T05:33:18.096Z,59.90
2022-09-24T05:34:18.066Z,55.00
2022-09-24T05:35:18.049Z,60.50
2022-09-24T05:36:18.040Z,59.00
2022-09-24T05:37:18.029Z,58.50
2022-09-24T05:38:18.017Z,54.90
2022-09-24T05:39:18.007Z,54.00
2022-09-24T05:40:18.059Z,63.40
2022-09-24T05:41:17.983Z,61.90
2022-09-24T05:42:17.974Z,58.60
2022-09-24T05:43:17.963Z,55.90
2022-09-24T05:44:17.951Z,53.70
2022-09-24T05:45:17.943Z,63.50
2022-09-24T05:46:17.986Z,56.90
2022-09-24T05:47:17.920Z,60.70
2022-09-24T05:48:17.910Z,62.90
2022-09-24T05:49:18.002Z,60.20
2022-09-24T05:50:17.884Z,56.30
2022-09-24T05:51:17.872Z,54.30
2022-09-24T05:52:17.867Z,57.20
2022-09-24T05:53:17.852Z,55.20
2022-09-24T05:54:17.845Z,55.60
2022-09-24T05:55:17.832Z,56.40
2022-09-24T05:56:17.820Z,58.30
2022-09-24T05:57:17.807Z,61.40
2022-09-24T05:58:18.048Z,55.10
2022-09-24T05:59:17.784Z,55.00
2022-09-24T06:00:17.775Z,59.20
2022-09-24T06:01:17.760Z,57.50
2022-09-24T06:02:17.847Z,62.60
2022-09-24T06:03:17.785Z,63.50
2022-09-24T06:04:17.730Z,61.60
2022-09-24T06:05:17.749Z,58.30
2022-09-24T06:06:17.708Z,59.50
2022-09-24T06:07:17.697Z,59.90
2022-09-24T06:08:17.685Z,62.80
2022-09-24T06:09:17.675Z,57.90
2022-09-24T06:10:17.664Z,80.90
2022-09-24T06:11:17.651Z,66.60
2022-09-24T06:12:17.642Z,66.70
2022-09-24T06:13:17.632Z,58.40
2022-09-24T06:14:17.619Z,66.90
2022-09-24T06:15:17.607Z,62.40
2022-09-24T06:16:17.628Z,58.00
2022-09-24T06:17:17.603Z,64.40
2022-09-24T06:18:17.580Z,57.90
2022-09-24T06:19:17.563Z,57.20
2022-09-24T06:20:17.556Z,60.10
2022-09-24T06:21:17.564Z,63.90
2022-09-24T06:22:17.529Z,58.40
2022-09-24T06:23:17.518Z,59.90
2022-09-24T06:24:17.507Z,58.00
2022-09-24T06:25:17.494Z,59.10
2022-09-24T06:26:17.494Z,59.80
2022-09-24T06:27:17.487Z,65.30
2022-09-24T06:28:17.469Z,58.10
2022-09-24T06:29:17.454Z,57.60
2022-09-24T06:30:17.442Z,57.80
2022-09-24T06:31:17.491Z,62.90
2022-09-24T06:32:17.419Z,60.60
2022-09-24T06:33:17.408Z,60.90
2022-09-24T06:34:17.396Z,62.90
2022-09-24T06:35:17.384Z,60.10
2022-09-24T06:36:17.373Z,58.30
2022-09-24T06:37:17.386Z,77.10
2022-09-24T06:38:17.373Z,61.20
2022-09-24T06:39:17.340Z,59.30
2022-09-24T06:40:17.431Z,68.40
2022-09-24T06:41:17.318Z,64.40
2022-09-24T06:42:17.310Z,60.00
2022-09-24T06:43:17.321Z,71.80
2022-09-24T06:44:17.285Z,58.30
2022-09-24T06:45:17.270Z,58.40
2022-09-24T06:46:17.275Z,66.90
2022-09-24T06:47:17.253Z,59.10
2022-09-24T06:48:17.242Z,59.10
2022-09-24T06:49:17.231Z,62.90
2022-09-24T06:50:17.221Z,59.10
2022-09-24T06:51:17.205Z,60.40
2022-09-24T06:52:17.194Z,65.50
2022-09-24T06:53:17.208Z,58.30
2022-09-24T06:54:17.191Z,59.40
2022-09-24T06:55:17.163Z,62.10
2022-09-24T06:56:17.151Z,61.00
2022-09-24T06:57:17.144Z,58.60
2022-09-24T06:58:17.135Z,60.00
2022-09-24T06:59:17.276Z,59.00
2022-09-24T07:00:17.118Z,58.80
2022-09-24T07:01:17.236Z,52.40
2022-09-24T07:02:17.171Z,51.00
2022-09-24T07:03:17.082Z,73.00
2022-09-24T07:04:17.065Z,68.80
2022-09-24T07:05:17.050Z,58.00
2022-09-24T07:06:17.042Z,57.40
2022-09-24T07:07:17.030Z,62.60
2022-09-24T07:08:17.018Z,57.60
2022-09-24T07:09:17.031Z,75.10
2022-09-24T07:10:16.995Z,61.50
2022-09-24T07:11:16.985Z,63.10
2022-09-24T07:12:16.976Z,58.20
2022-09-24T07:13:16.985Z,56.50
2022-09-24T07:14:16.965Z,58.80
2022-09-24T07:15:16.944Z,59.00
2022-09-24T07:16:17.116Z,64.20
2022-09-24T07:17:16.918Z,63.80
2022-09-24T07:18:16.911Z,57.10
2022-09-24T07:19:16.896Z,56.80
2022-09-24T07:20:16.890Z,58.20
2022-09-24T07:21:16.876Z,60.20
2022-09-24T07:22:16.869Z,59.10
2022-09-24T07:23:16.855Z,64.10
2022-09-24T07:24:16.845Z,56.20
2022-09-24T07:25:17.115Z,59.50
2022-09-24T07:26:16.824Z,74.20
2022-09-24T07:27:16.875Z,60.60
2022-09-24T07:28:16.905Z,63.10
2022-09-24T07:29:16.985Z,68.60
2022-09-24T07:30:17.050Z,60.10
2022-09-24T07:31:16.961Z,61.20
2022-09-24T07:32:16.913Z,65.40
2022-09-24T07:33:16.754Z,60.90
2022-09-24T07:34:16.740Z,61.60
2022-09-24T07:35:16.730Z,65.70
2022-09-24T07:36:16.720Z,68.40
2022-09-24T07:37:16.709Z,63.50
2022-09-24T07:38:16.703Z,67.80
2022-09-24T07:39:16.683Z,61.70
2022-09-24T07:40:16.753Z,56.20
2022-09-24T07:41:16.684Z,61.40
2022-09-24T07:42:16.672Z,61.80
2022-09-24T07:43:16.649Z,57.00
2022-09-24T07:44:16.644Z,60.60
2022-09-24T07:45:16.618Z,57.10
2022-09-24T07:46:16.680Z,62.80
2022-09-24T07:47:16.592Z,62.60
2022-09-24T07:48:16.581Z,64.40
2022-09-24T07:49:16.571Z,57.00
2022-09-24T07:50:16.559Z,58.70
2022-09-24T07:51:16.548Z,61.40
2022-09-24T07:52:16.540Z,63.30
2022-09-24T07:53:16.529Z,58.70
2022-09-24T07:54:17.480Z,57.30
2022-09-24T07:55:16.504Z,57.50
2022-09-24T07:56:16.494Z,58.40
2022-09-24T07:57:16.508Z,64.70
2022-09-24T07:58:16.566Z,64.40
2022-09-24T07:59:16.458Z,60.30
2022-09-24T08:00:16.449Z,58.20
2022-09-24T08:01:16.471Z,60.10
2022-09-24T08:02:16.426Z,56.50
2022-09-24T08:03:16.416Z,63.60
2022-09-24T08:04:16.568Z,60.20
2022-09-24T08:05:16.395Z,73.50
2022-09-24T08:06:16.382Z,70.20
2022-09-24T08:07:16.373Z,60.30
2022-09-24T08:08:16.363Z,63.90
2022-09-24T08:09:16.352Z,57.40
2022-09-24T08:10:16.340Z,56.50
2022-09-24T08:11:16.330Z,62.90
2022-09-24T08:12:16.320Z,62.20
2022-09-24T08:13:16.330Z,58.80
2022-09-24T08:14:16.295Z,59.50
2022-09-24T08:15:16.286Z,58.90
2022-09-24T08:16:16.342Z,57.40
2022-09-24T08:17:16.262Z,56.50
2022-09-24T08:18:16.261Z,55.90
2022-09-24T08:19:16.240Z,63.30
2022-09-24T08:20:16.230Z,53.40
2022-09-24T08:21:16.217Z,68.50
2022-09-24T08:22:16.210Z,60.40
2022-09-24T08:23:16.196Z,60.80
2022-09-24T08:24:16.189Z,58.20
2022-09-24T08:25:16.179Z,53.80
2022-09-24T08:26:16.172Z,56.80
2022-09-24T08:27:17.428Z,57.90
2022-09-24T08:28:16.143Z,56.20
2022-09-24T08:29:16.456Z,56.90
2022-09-24T08:30:16.122Z,54.20
2022-09-24T08:31:16.178Z,52.90
2022-09-24T08:32:16.099Z,54.50
2022-09-24T08:33:16.093Z,49.60
2022-09-24T08:34:16.078Z,51.70
2022-09-24T08:35:16.067Z,47.70
2022-09-24T08:36:16.056Z,47.40
2022-09-24T08:37:16.044Z,46.00
2022-09-24T08:38:16.040Z,46.20
2022-09-24T08:39:16.021Z,48.40
2022-09-24T08:40:16.106Z,49.20
2022-09-24T08:41:16.001Z,47.60
2022-09-24T08:42:15.988Z,46.30
2022-09-24T08:43:15.979Z,45.10
2022-09-24T08:44:15.968Z,45.30
2022-09-24T08:45:15.980Z,39.60
2022-09-24T08:46:16.000Z,42.50
2022-09-24T08:47:15.934Z,43.40
2022-09-24T08:48:15.925Z,45.10
2022-09-24T08:49:15.911Z,39.40
2022-09-24T08:50:15.903Z,44.30
2022-09-24T08:51:15.894Z,39.70
2022-09-24T08:52:15.885Z,40.00
2022-09-24T08:53:15.870Z,40.80
2022-09-24T08:54:15.858Z,38.50
2022-09-24T08:55:15.847Z,36.10
2022-09-24T08:56:15.837Z,37.70
2022-09-24T08:57:15.828Z,36.10
2022-09-24T08:58:15.814Z,35.90
2022-09-24T08:59:15.806Z,34.60
2022-09-24T09:00:15.809Z,36.00
2022-09-24T09:01:15.867Z,35.50
2022-09-24T09:02:15.847Z,36.00
2022-09-24T09:03:15.880Z,37.70
2022-09-24T09:04:15.763Z,37.20
2022-09-24T09:05:15.743Z,36.50
2022-09-24T09:06:15.725Z,33.70
2022-09-24T09:07:15.719Z,32.30
2022-09-24T09:08:41.387Z,31.90
2022-09-24T09:09:15.692Z,35.90
2022-09-24T09:10:15.686Z,33.10
2022-09-24T09:11:15.672Z,36.10
2022-09-24T09:12:15.663Z,32.50
2022-09-24T09:13:15.658Z,32.60
2022-09-24T09:14:15.647Z,31.50
2022-09-24T09:15:15.634Z,30.20
2022-09-24T09:16:15.690Z,30.90
2022-09-24T09:17:15.629Z,31.10
2022-09-24T09:18:15.595Z,30.00
2022-09-24T09:19:15.590Z,28.80
2022-09-24T09:20:15.576Z,28.60
2022-09-24T09:21:15.562Z,30.80
2022-09-24T09:22:15.553Z,30.60
2022-09-24T09:23:15.540Z,30.80
2022-09-24T09:24:15.530Z,31.90
2022-09-24T09:25:15.515Z,30.30
2022-09-24T09:26:15.509Z,27.30
2022-09-24T09:27:15.516Z,28.80
2022-09-24T09:28:15.638Z,29.20
2022-09-24T09:29:15.475Z,28.10
2022-09-24T09:30:15.460Z,28.40
2022-09-24T09:31:15.508Z,29.00
2022-09-24T09:32:15.443Z,28.20
2022-09-24T09:33:15.451Z,28.30
2022-09-24T09:34:15.418Z,27.90
2022-09-24T09:35:15.415Z,26.50
2022-09-24T09:36:15.397Z,25.90
2022-09-24T09:37:15.404Z,24.40
2022-09-24T09:38:15.377Z,23.60
2022-09-24T09:39:15.366Z,22.90
2022-09-24T09:40:15.432Z,22.40
2022-09-24T09:41:15.341Z,22.40
2022-09-24T09:42:15.329Z,22.50
2022-09-24T09:43:15.317Z,23.10
2022-09-24T09:44:15.306Z,22.10
2022-09-24T09:45:15.303Z,22.50
2022-09-24T09:46:15.362Z,23.90
2022-09-24T09:47:15.275Z,22.30
2022-09-24T09:48:15.261Z,22.70
2022-09-24T09:49:15.275Z,23.00
2022-09-24T09:50:15.353Z,22.20
2022-09-24T09:51:18.717Z,21.90
2022-09-24T09:52:16.240Z,23.10
2022-09-24T09:53:15.220Z,22.30
2022-09-24T09:54:15.195Z,23.90
2022-09-24T09:55:15.184Z,25.10
2022-09-24T09:56:15.172Z,23.10
2022-09-24T09:57:15.162Z,24.00
2022-09-24T09:58:15.187Z,22.90
2022-09-24T09:59:15.141Z,23.20
2022-09-24T10:00:15.197Z,22.80
2022-09-24T10:01:15.117Z,23.50
2022-09-24T10:02:15.220Z,23.10
2022-09-24T10:03:15.183Z,22.40
2022-09-24T10:04:15.084Z,22.90
2022-09-24T10:05:18.701Z,23.40
2022-09-24T10:06:15.060Z,24.10
2022-09-24T10:07:15.053Z,23.30
2022-09-24T10:08:15.041Z,22.40
2022-09-24T10:09:15.028Z,23.50
2022-09-24T10:10:15.130Z,24.70
2022-09-24T10:11:15.008Z,23.90
2022-09-24T10:12:14.995Z,24.40
2022-09-24T10:13:14.984Z,23.70
2022-09-24T10:14:14.973Z,22.60
2022-09-24T10:15:14.987Z,23.30
2022-09-24T10:16:15.023Z,24.30
2022-09-24T10:17:14.962Z,23.70
2022-09-24T10:18:14.933Z,24.00
2022-09-24T10:19:14.923Z,25.30
2022-09-24T10:20:15.059Z,24.90
2022-09-24T10:21:14.923Z,25.00
2022-09-24T10:22:14.893Z,24.90
2022-09-24T10:23:14.877Z,24.60
2022-09-24T10:24:14.866Z,23.80
2022-09-24T10:25:14.857Z,23.20
2022-09-24T10:26:14.846Z,23.40
2022-09-24T10:27:14.837Z,23.30
2022-09-24T10:28:14.824Z,23.60
2022-09-24T10:29:14.815Z,23.70
2022-09-24T10:30:14.903Z,24.30
2022-09-24T10:31:14.854Z,24.40
2022-09-24T10:32:14.782Z,25.50
2022-09-24T10:33:14.771Z,24.00
2022-09-24T10:34:14.759Z,24.30
2022-09-24T10:35:14.752Z,22.70
2022-09-24T10:36:14.739Z,23.10
2022-09-24T10:37:14.767Z,24.20
2022-09-24T10:38:14.716Z,26.80
2022-09-24T10:39:14.708Z,24.80
2022-09-24T10:40:14.866Z,23.90
2022-09-24T10:41:14.691Z,23.70
2022-09-24T10:42:14.675Z,23.70
2022-09-24T10:43:14.664Z,23.90
2022-09-24T10:44:14.653Z,24.40
2022-09-24T10:45:14.639Z,22.20
2022-09-24T10:46:14.658Z,22.30
2022-09-24T10:47:14.619Z,23.70
2022-09-24T10:48:14.602Z,23.40
2022-09-24T10:49:14.594Z,23.20
2022-09-24T10:50:14.579Z,24.00
2022-09-24T10:51:14.578Z,22.70
2022-09-24T10:52:14.557Z,21.60
2022-09-24T10:53:14.599Z,22.10
2022-09-24T10:54:14.543Z,21.80
2022-09-24T10:55:14.528Z,22.50
2022-09-24T10:56:14.517Z,22.90
2022-09-24T10:57:14.505Z,22.40
2022-09-24T10:58:14.493Z,22.50
2022-09-24T10:59:14.487Z,21.10
2022-09-24T11:00:14.470Z,21.40
2022-09-24T11:01:14.462Z,21.50
2022-09-24T11:02:14.513Z,20.40
2022-09-24T11:03:14.501Z,21.10
2022-09-24T11:04:14.428Z,19.90
2022-09-24T11:05:14.418Z,19.60
2022-09-24T11:06:14.449Z,20.60
2022-09-24T11:07:14.406Z,20.10
2022-09-24T11:08:14.382Z,21.10
2022-09-24T11:09:14.396Z,20.70
2022-09-24T11:10:14.399Z,20.00
2022-09-24T11:11:14.352Z,20.60
2022-09-24T11:12:14.339Z,20.90
2022-09-24T11:13:14.330Z,20.70
2022-09-24T11:14:14.317Z,22.30
2022-09-24T11:15:14.330Z,21.60
2022-09-24T11:16:14.430Z,20.80
2022-09-24T11:17:14.288Z,21.90
2022-09-24T11:18:14.276Z,21.70
2022-09-24T11:19:14.264Z,21.90
2022-09-24T11:20:14.253Z,22.20
2022-09-24T11:21:14.244Z,22.00
2022-09-24T11:22:14.230Z,23.20
2022-09-24T11:23:14.244Z,23.50
2022-09-24T11:24:14.206Z,23.00
2022-09-24T11:25:14.221Z,22.60
2022-09-24T11:26:14.186Z,23.00
2022-09-24T11:27:14.175Z,22.50
2022-09-24T11:28:14.165Z,23.90
2022-09-24T11:29:14.161Z,23.90
2022-09-24T11:30:14.146Z,23.60
2022-09-24T11:31:14.229Z,24.00
2022-09-24T11:32:14.137Z,24.40
2022-09-24T11:33:14.113Z,24.50
2022-09-24T11:34:14.103Z,24.90
2022-09-24T11:35:14.091Z,24.20
2022-09-24T11:36:14.080Z,25.20
2022-09-24T11:37:14.071Z,26.00
2022-09-24T11:38:14.057Z,25.80
2022-09-24T11:39:14.048Z,26.00
2022-09-24T11:40:14.103Z,26.60
2022-09-24T11:41:14.054Z,26.30
2022-09-24T11:42:14.013Z,27.80
2022-09-24T11:43:14.003Z,26.70
2022-09-24T11:44:13.991Z,26.60
2022-09-24T11:45:13.982Z,26.20
2022-09-24T11:46:14.020Z,27.50
2022-09-24T11:47:13.961Z,27.10
2022-09-24T11:48:13.948Z,26.70
2022-09-24T11:49:13.939Z,26.30
2022-09-24T11:50:13.924Z,26.70
2022-09-24T11:51:13.921Z,25.90
2022-09-24T11:52:13.902Z,26.60
2022-09-24T11:53:13.894Z,27.20
2022-09-24T11:54:13.893Z,27.40
2022-09-24T11:55:13.896Z,27.60
2022-09-24T11:56:13.882Z,26.80
2022-09-24T11:57:13.872Z,25.80
2022-09-24T11:58:13.835Z,26.90
2022-09-24T11:59:13.826Z,26.10
2022-09-24T12:00:13.835Z,27.10
2022-09-24T12:01:13.802Z,26.70
2022-09-24T12:02:13.941Z,28.20
2022-09-24T12:03:13.885Z,27.10
2022-09-24T12:04:13.770Z,27.10
2022-09-24T12:05:13.759Z,27.40
2022-09-24T12:06:13.754Z,27.90
2022-09-24T12:07:13.747Z,26.60
2022-09-24T12:08:13.745Z,27.50
2022-09-24T12:09:13.716Z,27.20
2022-09-24T12:10:13.705Z,27.60
2022-09-24T12:11:13.702Z,26.40
2022-09-24T12:12:13.681Z,27.10
2022-09-24T12:13:13.694Z,26.90
2022-09-24T12:14:13.672Z,28.10
2022-09-24T12:15:13.653Z,28.00
2022-09-24T12:16:13.783Z,30.50
2022-09-24T12:17:13.631Z,28.00
2022-09-24T12:18:13.620Z,28.60
2022-09-24T12:19:13.608Z,27.20
2022-09-24T12:20:13.595Z,27.50
2022-09-24T12:21:13.594Z,27.40
2022-09-24T12:22:13.583Z,26.70
2022-09-24T12:23:13.567Z,27.30
2022-09-24T12:24:13.745Z,27.20
2022-09-24T12:25:13.541Z,25.30
2022-09-24T12:26:13.527Z,25.60
2022-09-24T12:27:13.520Z,25.80
2022-09-24T12:28:13.506Z,25.80
2022-09-24T12:29:13.520Z,25.80
2022-09-24T12:30:13.487Z,25.10
2022-09-24T12:31:13.542Z,25.60
2022-09-24T12:32:13.461Z,25.10
2022-09-24T12:33:13.452Z,25.50
2022-09-24T12:34:13.447Z,25.30
2022-09-24T12:35:13.436Z,24.70
2022-09-24T12:36:13.428Z,23.70
2022-09-24T12:37:13.441Z,24.20
2022-09-24T12:38:13.406Z,24.90
2022-09-24T12:39:13.392Z,23.80
2022-09-24T12:40:13.422Z,25.60
2022-09-24T12:41:13.365Z,25.70
2022-09-24T12:42:13.354Z,25.60
2022-09-24T12:43:13.345Z,23.70
2022-09-24T12:44:15.218Z,24.50
2022-09-24T12:45:13.348Z,24.30
2022-09-24T12:46:13.332Z,23.90
2022-09-24T12:47:13.301Z,24.70
2022-09-24T12:48:13.293Z,24.50
2022-09-24T12:49:13.289Z,23.30
2022-09-24T12:50:13.287Z,23.20
2022-09-24T12:51:13.257Z,23.10
2022-09-24T12:52:13.243Z,24.00
2022-09-24T12:53:13.236Z,24.40
2022-09-24T12:54:13.227Z,23.50
2022-09-24T12:55:13.212Z,24.00
2022-09-24T12:56:13.201Z,24.90
2022-09-24T12:57:13.193Z,24.90